sensor_id;sensor_type;location;lat;lon;timestamp;P1;durP1;ratioP1;P2;durP2;ratioP2
72284;SDS011;60220;53.552;10.092;2024-01-06T00:01:13;7.30;;;3.85;;
72284;SDS011;60220;53.552;10.092;2024-01-06T00:03:40;10.82;;;4.00;;
72284;SDS011;60220;53.552;10.092;2024-01-06T00:06:06;8.82;;;3.85;;
72284;SDS011;60220;53.552;10.092;2024-01-06T00:08:34;8.48;;;2.85;;
72284;SDS011;60220;53.552;10.092;2024-01-06T00:11:04;9.10;;;4.45;;
72284;SDS011;60220;53.552;10.092;2024-01-06T00:13:30;5.63;;;2.90;;
72284;SDS011;60220;53.552;10.092;2024-01-06T00:16:00;5.30;;;3.33;;
72284;SDS011;60220;53.552;10.092;2024-01-06T00:18:27;8.20;;;3.42;;
72284;SDS011;60220;53.552;10.092;2024-01-06T00:20:53;5.20;;;3.17;;
72284;SDS011;60220;53.552;10.092;2024-01-06T00:23:20;7.85;;;4.03;;
72284;SDS011;60220;53.552;10.092;2024-01-06T00:25:50;9.05;;;4.47;;
72284;SDS011;60220;53.552;10.092;2024-01-06T00:28:17;7.70;;;3.83;;
72284;SDS011;60220;53.552;10.092;2024-01-06T00:30:43;5.07;;;2.67;;
72284;SDS011;60220;53.552;10.092;2024-01-06T00:33:11;6.32;;;2.80;;
72284;SDS011;60220;53.552;10.092;2024-01-06T00:35:40;8.20;;;3.63;;
72284;SDS011;60220;53.552;10.092;2024-01-06T00:38:08;6.15;;;3.25;;
72284;SDS011;60220;53.552;10.092;2024-01-06T00:40:36;12.40;;;4.53;;
72284;SDS011;60220;53.552;10.092;2024-01-06T00:43:05;10.23;;;4.65;;
72284;SDS011;60220;53.552;10.092;2024-01-06T00:45:31;6.20;;;3.78;;
72284;SDS011;60220;53.552;10.092;2024-01-06T00:47:58;5.93;;;3.25;;
72284;SDS011;60220;53.552;10.092;2024-01-06T00:50:25;8.52;;;4.18;;
72284;SDS011;60220;53.552;10.092;2024-01-06T00:52:51;9.88;;;3.55;;
72284;SDS011;60220;53.552;10.092;2024-01-06T00:55:18;5.25;;;3.63;;
72284;SDS011;60220;53.552;10.092;2024-01-06T00:57:45;7.85;;;3.83;;
72284;SDS011;60220;53.552;10.092;2024-01-06T01:00:13;6.57;;;3.67;;
72284;SDS011;60220;53.552;10.092;2024-01-06T01:02:40;7.15;;;3.70;;
72284;SDS011;60220;53.552;10.092;2024-01-06T01:05:07;7.28;;;3.47;;
72284;SDS011;60220;53.552;10.092;2024-01-06T01:07:34;8.43;;;4.78;;
72284;SDS011;60220;53.552;10.092;2024-01-06T01:10:01;7.03;;;3.13;;
72284;SDS011;60220;53.552;10.092;2024-01-06T01:12:27;7.97;;;3.35;;
72284;SDS011;60220;53.552;10.092;2024-01-06T01:14:54;7.70;;;3.05;;
72284;SDS011;60220;53.552;10.092;2024-01-06T01:17:22;7.30;;;3.58;;
72284;SDS011;60220;53.552;10.092;2024-01-06T01:19:52;6.45;;;3.30;;
72284;SDS011;60220;53.552;10.092;2024-01-06T01:22:19;9.45;;;4.00;;
72284;SDS011;60220;53.552;10.092;2024-01-06T01:24:46;5.95;;;4.05;;
72284;SDS011;60220;53.552;10.092;2024-01-06T01:27:13;7.15;;;3.35;;
72284;SDS011;60220;53.552;10.092;2024-01-06T01:29:39;11.57;;;4.22;;
72284;SDS011;60220;53.552;10.092;2024-01-06T01:32:06;8.63;;;4.50;;
72284;SDS011;60220;53.552;10.092;2024-01-06T01:34:34;7.93;;;3.38;;
72284;SDS011;60220;53.552;10.092;2024-01-06T01:37:01;7.10;;;3.90;;
72284;SDS011;60220;53.552;10.092;2024-01-06T01:39:27;7.85;;;3.78;;
72284;SDS011;60220;53.552;10.092;2024-01-06T01:41:56;10.50;;;4.47;;
72284;SDS011;60220;53.552;10.092;2024-01-06T01:44:23;9.15;;;4.95;;
72284;SDS011;60220;53.552;10.092;2024-01-06T01:46:50;13.50;;;5.82;;
72284;SDS011;60220;53.552;10.092;2024-01-06T01:49:16;11.70;;;4.97;;
72284;SDS011;60220;53.552;10.092;2024-01-06T01:51:45;8.13;;;5.03;;
72284;SDS011;60220;53.552;10.092;2024-01-06T01:54:11;6.18;;;3.33;;
72284;SDS011;60220;53.552;10.092;2024-01-06T01:56:40;8.48;;;4.10;;
72284;SDS011;60220;53.552;10.092;2024-01-06T01:59:09;10.30;;;4.18;;
72284;SDS011;60220;53.552;10.092;2024-01-06T02:01:38;9.05;;;3.83;;
72284;SDS011;60220;53.552;10.092;2024-01-06T02:04:06;7.25;;;3.85;;
72284;SDS011;60220;53.552;10.092;2024-01-06T02:06:32;11.40;;;4.18;;
72284;SDS011;60220;53.552;10.092;2024-01-06T02:09:00;10.00;;;4.10;;
72284;SDS011;60220;53.552;10.092;2024-01-06T02:11:28;8.25;;;4.22;;
72284;SDS011;60220;53.552;10.092;2024-01-06T02:13:55;9.07;;;4.25;;
72284;SDS011;60220;53.552;10.092;2024-01-06T02:16:21;8.85;;;3.65;;
72284;SDS011;60220;53.552;10.092;2024-01-06T02:18:48;15.52;;;4.43;;
72284;SDS011;60220;53.552;10.092;2024-01-06T02:21:15;10.98;;;4.15;;
72284;SDS011;60220;53.552;10.092;2024-01-06T02:23:43;8.48;;;4.22;;
72284;SDS011;60220;53.552;10.092;2024-01-06T02:26:10;6.28;;;3.60;;
72284;SDS011;60220;53.552;10.092;2024-01-06T02:28:38;7.28;;;3.97;;
72284;SDS011;60220;53.552;10.092;2024-01-06T02:31:05;9.43;;;4.43;;
72284;SDS011;60220;53.552;10.092;2024-01-06T02:33:31;8.27;;;4.70;;
72284;SDS011;60220;53.552;10.092;2024-01-06T02:35:58;6.78;;;3.83;;
72284;SDS011;60220;53.552;10.092;2024-01-06T02:38:24;7.90;;;3.72;;
72284;SDS011;60220;53.552;10.092;2024-01-06T02:40:52;6.75;;;3.10;;
72284;SDS011;60220;53.552;10.092;2024-01-06T02:43:19;5.85;;;3.47;;
72284;SDS011;60220;53.552;10.092;2024-01-06T02:45:47;9.18;;;4.50;;
72284;SDS011;60220;53.552;10.092;2024-01-06T02:48:13;7.50;;;3.50;;
72284;SDS011;60220;53.552;10.092;2024-01-06T02:50:40;7.10;;;3.15;;
72284;SDS011;60220;53.552;10.092;2024-01-06T02:53:09;4.70;;;2.92;;
72284;SDS011;60220;53.552;10.092;2024-01-06T02:55:37;6.22;;;3.83;;
72284;SDS011;60220;53.552;10.092;2024-01-06T02:58:08;6.43;;;3.70;;
72284;SDS011;60220;53.552;10.092;2024-01-06T03:00:34;8.48;;;3.45;;
72284;SDS011;60220;53.552;10.092;2024-01-06T03:03:01;4.88;;;3.45;;
72284;SDS011;60220;53.552;10.092;2024-01-06T03:05:28;7.80;;;4.13;;
72284;SDS011;60220;53.552;10.092;2024-01-06T03:07:54;7.65;;;3.05;;
72284;SDS011;60220;53.552;10.092;2024-01-06T03:10:21;6.43;;;3.58;;
72284;SDS011;60220;53.552;10.092;2024-01-06T03:12:48;6.85;;;3.78;;
72284;SDS011;60220;53.552;10.092;2024-01-06T03:15:16;8.07;;;4.38;;
72284;SDS011;60220;53.552;10.092;2024-01-06T03:17:42;8.57;;;3.88;;
72284;SDS011;60220;53.552;10.092;2024-01-06T03:20:09;8.18;;;3.88;;
72284;SDS011;60220;53.552;10.092;2024-01-06T03:22:36;7.38;;;4.03;;
72284;SDS011;60220;53.552;10.092;2024-01-06T03:25:03;7.13;;;4.00;;
72284;SDS011;60220;53.552;10.092;2024-01-06T03:27:31;8.43;;;3.70;;
72284;SDS011;60220;53.552;10.092;2024-01-06T03:30:01;7.22;;;3.50;;
72284;SDS011;60220;53.552;10.092;2024-01-06T03:32:29;9.73;;;4.85;;
72284;SDS011;60220;53.552;10.092;2024-01-06T03:34:56;8.18;;;3.55;;
72284;SDS011;60220;53.552;10.092;2024-01-06T03:37:25;9.35;;;3.97;;
72284;SDS011;60220;53.552;10.092;2024-01-06T03:39:54;8.23;;;4.13;;
72284;SDS011;60220;53.552;10.092;2024-01-06T03:42:23;10.57;;;5.00;;
72284;SDS011;60220;53.552;10.092;2024-01-06T03:44:50;11.35;;;4.55;;
72284;SDS011;60220;53.552;10.092;2024-01-06T03:47:16;5.47;;;3.35;;
72284;SDS011;60220;53.552;10.092;2024-01-06T03:49:44;8.77;;;4.80;;
72284;SDS011;60220;53.552;10.092;2024-01-06T03:52:11;9.23;;;4.82;;
72284;SDS011;60220;53.552;10.092;2024-01-06T03:54:39;7.22;;;3.78;;
72284;SDS011;60220;53.552;10.092;2024-01-06T03:57:08;8.23;;;3.95;;
72284;SDS011;60220;53.552;10.092;2024-01-06T03:59:34;7.30;;;3.70;;
72284;SDS011;60220;53.552;10.092;2024-01-06T04:02:04;9.35;;;4.75;;
72284;SDS011;60220;53.552;10.092;2024-01-06T04:04:30;7.65;;;3.75;;
72284;SDS011;60220;53.552;10.092;2024-01-06T04:06:58;8.27;;;4.10;;
72284;SDS011;60220;53.552;10.092;2024-01-06T04:09:26;6.88;;;4.03;;
72284;SDS011;60220;53.552;10.092;2024-01-06T04:11:53;6.72;;;3.42;;
72284;SDS011;60220;53.552;10.092;2024-01-06T04:14:19;7.20;;;3.90;;
72284;SDS011;60220;53.552;10.092;2024-01-06T04:16:48;10.55;;;4.40;;
72284;SDS011;60220;53.552;10.092;2024-01-06T04:19:15;10.23;;;4.60;;
72284;SDS011;60220;53.552;10.092;2024-01-06T04:21:42;9.20;;;3.90;;
72284;SDS011;60220;53.552;10.092;2024-01-06T04:24:10;8.75;;;4.78;;
72284;SDS011;60220;53.552;10.092;2024-01-06T04:26:37;6.70;;;3.90;;
72284;SDS011;60220;53.552;10.092;2024-01-06T04:29:04;7.18;;;4.10;;
72284;SDS011;60220;53.552;10.092;2024-01-06T04:31:30;11.63;;;4.70;;
72284;SDS011;60220;53.552;10.092;2024-01-06T04:33:57;7.95;;;3.67;;
72284;SDS011;60220;53.552;10.092;2024-01-06T04:36:23;8.38;;;4.38;;
72284;SDS011;60220;53.552;10.092;2024-01-06T04:38:50;9.23;;;3.88;;
72284;SDS011;60220;53.552;10.092;2024-01-06T04:41:20;6.55;;;3.85;;
72284;SDS011;60220;53.552;10.092;2024-01-06T04:43:47;9.43;;;3.85;;
72284;SDS011;60220;53.552;10.092;2024-01-06T04:46:14;7.15;;;4.13;;
72284;SDS011;60220;53.552;10.092;2024-01-06T04:48:41;8.60;;;4.07;;
72284;SDS011;60220;53.552;10.092;2024-01-06T04:51:08;9.48;;;4.28;;
72284;SDS011;60220;53.552;10.092;2024-01-06T04:53:36;7.45;;;3.80;;
72284;SDS011;60220;53.552;10.092;2024-01-06T04:56:03;9.32;;;4.10;;
72284;SDS011;60220;53.552;10.092;2024-01-06T04:58:31;11.15;;;4.20;;
72284;SDS011;60220;53.552;10.092;2024-01-06T05:00:59;10.45;;;5.15;;
72284;SDS011;60220;53.552;10.092;2024-01-06T05:03:27;10.68;;;5.38;;
72284;SDS011;60220;53.552;10.092;2024-01-06T05:05:54;11.55;;;5.45;;
72284;SDS011;60220;53.552;10.092;2024-01-06T05:08:21;6.07;;;3.55;;
72284;SDS011;60220;53.552;10.092;2024-01-06T05:10:51;11.13;;;4.38;;
72284;SDS011;60220;53.552;10.092;2024-01-06T05:13:19;9.75;;;4.47;;
72284;SDS011;60220;53.552;10.092;2024-01-06T05:15:47;12.52;;;5.68;;
72284;SDS011;60220;53.552;10.092;2024-01-06T05:18:14;7.53;;;3.80;;
72284;SDS011;60220;53.552;10.092;2024-01-06T05:20:43;11.98;;;5.00;;
72284;SDS011;60220;53.552;10.092;2024-01-06T05:23:09;9.68;;;4.63;;
72284;SDS011;60220;53.552;10.092;2024-01-06T05:25:36;14.07;;;4.90;;
72284;SDS011;60220;53.552;10.092;2024-01-06T05:28:03;9.48;;;3.97;;
72284;SDS011;60220;53.552;10.092;2024-01-06T05:30:30;12.93;;;5.28;;
72284;SDS011;60220;53.552;10.092;2024-01-06T05:32:58;12.75;;;5.30;;
72284;SDS011;60220;53.552;10.092;2024-01-06T05:35:27;12.95;;;5.82;;
72284;SDS011;60220;53.552;10.092;2024-01-06T05:37:53;11.15;;;4.82;;
72284;SDS011;60220;53.552;10.092;2024-01-06T05:40:23;11.23;;;5.15;;
72284;SDS011;60220;53.552;10.092;2024-01-06T05:42:51;9.43;;;4.22;;
72284;SDS011;60220;53.552;10.092;2024-01-06T05:45:20;8.82;;;5.07;;
72284;SDS011;60220;53.552;10.092;2024-01-06T05:47:47;8.18;;;3.85;;
72284;SDS011;60220;53.552;10.092;2024-01-06T05:50:16;15.55;;;5.15;;
72284;SDS011;60220;53.552;10.092;2024-01-06T05:52:43;10.77;;;5.10;;
72284;SDS011;60220;53.552;10.092;2024-01-06T05:55:09;10.55;;;5.50;;
72284;SDS011;60220;53.552;10.092;2024-01-06T05:57:36;11.40;;;5.20;;
72284;SDS011;60220;53.552;10.092;2024-01-06T06:00:03;12.50;;;4.78;;
72284;SDS011;60220;53.552;10.092;2024-01-06T06:02:33;10.23;;;4.75;;
72284;SDS011;60220;53.552;10.092;2024-01-06T06:05:00;11.90;;;5.15;;
72284;SDS011;60220;53.552;10.092;2024-01-06T06:07:28;11.13;;;4.47;;
72284;SDS011;60220;53.552;10.092;2024-01-06T06:09:55;8.88;;;4.40;;
72284;SDS011;60220;53.552;10.092;2024-01-06T06:12:21;11.02;;;4.78;;
72284;SDS011;60220;53.552;10.092;2024-01-06T06:14:48;10.45;;;4.75;;
72284;SDS011;60220;53.552;10.092;2024-01-06T06:17:17;9.23;;;4.70;;
72284;SDS011;60220;53.552;10.092;2024-01-06T06:19:43;10.18;;;4.65;;
72284;SDS011;60220;53.552;10.092;2024-01-06T06:22:10;8.70;;;4.47;;
72284;SDS011;60220;53.552;10.092;2024-01-06T06:24:38;13.02;;;5.78;;
72284;SDS011;60220;53.552;10.092;2024-01-06T06:27:05;11.50;;;5.57;;
72284;SDS011;60220;53.552;10.092;2024-01-06T06:29:32;16.55;;;5.40;;
72284;SDS011;60220;53.552;10.092;2024-01-06T06:31:59;12.20;;;5.35;;
72284;SDS011;60220;53.552;10.092;2024-01-06T06:34:26;12.60;;;5.45;;
72284;SDS011;60220;53.552;10.092;2024-01-06T06:36:52;9.13;;;4.45;;
72284;SDS011;60220;53.552;10.092;2024-01-06T06:39:19;8.80;;;4.72;;
72284;SDS011;60220;53.552;10.092;2024-01-06T06:41:47;8.50;;;4.05;;
72284;SDS011;60220;53.552;10.092;2024-01-06T06:44:14;11.50;;;4.53;;
72284;SDS011;60220;53.552;10.092;2024-01-06T06:46:40;11.95;;;5.70;;
72284;SDS011;60220;53.552;10.092;2024-01-06T06:49:07;10.63;;;4.70;;
72284;SDS011;60220;53.552;10.092;2024-01-06T06:51:33;10.75;;;5.38;;
72284;SDS011;60220;53.552;10.092;2024-01-06T06:54:00;11.52;;;5.78;;
72284;SDS011;60220;53.552;10.092;2024-01-06T06:56:27;10.52;;;5.13;;
72284;SDS011;60220;53.552;10.092;2024-01-06T06:58:55;9.85;;;4.88;;
72284;SDS011;60220;53.552;10.092;2024-01-06T07:01:24;10.98;;;5.00;;
72284;SDS011;60220;53.552;10.092;2024-01-06T07:03:50;8.63;;;3.88;;
72284;SDS011;60220;53.552;10.092;2024-01-06T07:06:17;9.25;;;4.68;;
72284;SDS011;60220;53.552;10.092;2024-01-06T07:08:44;9.70;;;4.43;;
72284;SDS011;60220;53.552;10.092;2024-01-06T07:11:10;9.63;;;4.85;;
72284;SDS011;60220;53.552;10.092;2024-01-06T07:13:40;11.82;;;5.78;;
72284;SDS011;60220;53.552;10.092;2024-01-06T07:16:08;11.82;;;4.93;;
72284;SDS011;60220;53.552;10.092;2024-01-06T07:18:35;14.00;;;6.63;;
72284;SDS011;60220;53.552;10.092;2024-01-06T07:21:04;6.85;;;3.50;;
72284;SDS011;60220;53.552;10.092;2024-01-06T07:23:31;14.13;;;6.07;;
72284;SDS011;60220;53.552;10.092;2024-01-06T07:25:58;10.77;;;5.32;;
72284;SDS011;60220;53.552;10.092;2024-01-06T07:28:25;13.68;;;5.50;;
72284;SDS011;60220;53.552;10.092;2024-01-06T07:30:52;16.38;;;5.82;;
72284;SDS011;60220;53.552;10.092;2024-01-06T07:33:21;7.47;;;4.10;;
72284;SDS011;60220;53.552;10.092;2024-01-06T07:35:48;11.63;;;4.63;;
72284;SDS011;60220;53.552;10.092;2024-01-06T07:38:17;10.57;;;5.75;;
72284;SDS011;60220;53.552;10.092;2024-01-06T07:40:44;12.75;;;6.13;;
72284;SDS011;60220;53.552;10.092;2024-01-06T07:43:13;11.70;;;5.60;;
72284;SDS011;60220;53.552;10.092;2024-01-06T07:45:43;11.05;;;4.78;;
72284;SDS011;60220;53.552;10.092;2024-01-06T07:48:11;10.32;;;5.45;;
72284;SDS011;60220;53.552;10.092;2024-01-06T07:50:40;13.15;;;5.82;;
72284;SDS011;60220;53.552;10.092;2024-01-06T07:53:06;12.07;;;5.55;;
72284;SDS011;60220;53.552;10.092;2024-01-06T07:55:33;13.30;;;5.82;;
72284;SDS011;60220;53.552;10.092;2024-01-06T07:58:00;7.75;;;4.05;;
72284;SDS011;60220;53.552;10.092;2024-01-06T08:00:27;11.45;;;5.10;;
72284;SDS011;60220;53.552;10.092;2024-01-06T08:02:53;12.95;;;5.28;;
72284;SDS011;60220;53.552;10.092;2024-01-06T08:05:21;14.18;;;5.95;;
72284;SDS011;60220;53.552;10.092;2024-01-06T08:07:50;10.07;;;5.53;;
72284;SDS011;60220;53.552;10.092;2024-01-06T08:10:19;13.13;;;6.22;;
72284;SDS011;60220;53.552;10.092;2024-01-06T08:12:47;11.85;;;5.22;;
72284;SDS011;60220;53.552;10.092;2024-01-06T08:15:13;12.52;;;5.47;;
72284;SDS011;60220;53.552;10.092;2024-01-06T08:17:40;10.40;;;5.28;;
72284;SDS011;60220;53.552;10.092;2024-01-06T08:20:07;10.40;;;4.32;;
72284;SDS011;60220;53.552;10.092;2024-01-06T08:22:34;11.95;;;6.13;;
72284;SDS011;60220;53.552;10.092;2024-01-06T08:25:02;29.10;;;11.05;;
72284;SDS011;60220;53.552;10.092;2024-01-06T08:27:31;11.43;;;5.68;;
72284;SDS011;60220;53.552;10.092;2024-01-06T08:30:00;10.80;;;5.63;;
72284;SDS011;60220;53.552;10.092;2024-01-06T08:32:27;18.55;;;6.72;;
72284;SDS011;60220;53.552;10.092;2024-01-06T08:34:56;8.82;;;3.63;;
72284;SDS011;60220;53.552;10.092;2024-01-06T08:37:22;18.45;;;6.18;;
72284;SDS011;60220;53.552;10.092;2024-01-06T08:39:49;9.27;;;4.57;;
72284;SDS011;60220;53.552;10.092;2024-01-06T08:42:17;12.35;;;5.88;;
72284;SDS011;60220;53.552;10.092;2024-01-06T08:44:44;11.13;;;5.10;;
72284;SDS011;60220;53.552;10.092;2024-01-06T08:47:11;11.00;;;4.90;;
72284;SDS011;60220;53.552;10.092;2024-01-06T08:49:38;8.65;;;5.20;;
72284;SDS011;60220;53.552;10.092;2024-01-06T08:52:05;16.83;;;6.93;;
72284;SDS011;60220;53.552;10.092;2024-01-06T08:54:32;12.85;;;5.82;;
72284;SDS011;60220;53.552;10.092;2024-01-06T08:56:58;10.52;;;5.72;;
72284;SDS011;60220;53.552;10.092;2024-01-06T08:59:26;11.13;;;5.40;;
72284;SDS011;60220;53.552;10.092;2024-01-06T09:01:53;12.68;;;5.03;;
72284;SDS011;60220;53.552;10.092;2024-01-06T09:04:24;10.38;;;4.78;;
72284;SDS011;60220;53.552;10.092;2024-01-06T09:06:50;6.28;;;3.67;;
72284;SDS011;60220;53.552;10.092;2024-01-06T09:09:17;13.95;;;5.70;;
72284;SDS011;60220;53.552;10.092;2024-01-06T09:11:43;12.32;;;5.00;;
72284;SDS011;60220;53.552;10.092;2024-01-06T09:14:14;10.88;;;5.32;;
72284;SDS011;60220;53.552;10.092;2024-01-06T09:16:44;12.98;;;6.18;;
72284;SDS011;60220;53.552;10.092;2024-01-06T09:19:13;11.38;;;5.55;;
72284;SDS011;60220;53.552;10.092;2024-01-06T09:21:39;11.95;;;5.22;;
72284;SDS011;60220;53.552;10.092;2024-01-06T09:24:07;22.70;;;9.98;;
72284;SDS011;60220;53.552;10.092;2024-01-06T09:26:33;14.98;;;6.03;;
72284;SDS011;60220;53.552;10.092;2024-01-06T09:29:00;9.15;;;4.93;;
72284;SDS011;60220;53.552;10.092;2024-01-06T09:31:27;12.38;;;5.55;;
72284;SDS011;60220;53.552;10.092;2024-01-06T09:36:27;12.65;;;6.55;;
72284;SDS011;60220;53.552;10.092;2024-01-06T09:38:54;10.80;;;5.45;;
72284;SDS011;60220;53.552;10.092;2024-01-06T09:41:21;11.40;;;5.82;;
72284;SDS011;60220;53.552;10.092;2024-01-06T09:43:50;11.38;;;5.15;;
72284;SDS011;60220;53.552;10.092;2024-01-06T09:46:18;10.02;;;4.85;;
72284;SDS011;60220;53.552;10.092;2024-01-06T09:48:51;10.60;;;5.25;;
72284;SDS011;60220;53.552;10.092;2024-01-06T09:51:22;14.07;;;5.28;;
72284;SDS011;60220;53.552;10.092;2024-01-06T09:53:51;11.57;;;4.65;;
72284;SDS011;60220;53.552;10.092;2024-01-06T09:56:22;11.75;;;5.90;;
72284;SDS011;60220;53.552;10.092;2024-01-06T09:58:50;11.00;;;5.97;;
72284;SDS011;60220;53.552;10.092;2024-01-06T10:01:17;10.38;;;5.75;;
72284;SDS011;60220;53.552;10.092;2024-01-06T10:03:44;9.90;;;5.47;;
72284;SDS011;60220;53.552;10.092;2024-01-06T10:06:11;10.35;;;5.20;;
72284;SDS011;60220;53.552;10.092;2024-01-06T10:08:41;10.57;;;5.28;;
72284;SDS011;60220;53.552;10.092;2024-01-06T10:11:08;14.30;;;4.88;;
72284;SDS011;60220;53.552;10.092;2024-01-06T10:13:36;13.02;;;5.95;;
72284;SDS011;60220;53.552;10.092;2024-01-06T10:16:03;13.18;;;5.57;;
72284;SDS011;60220;53.552;10.092;2024-01-06T10:18:32;12.73;;;5.38;;
72284;SDS011;60220;53.552;10.092;2024-01-06T10:21:02;13.52;;;6.32;;
72284;SDS011;60220;53.552;10.092;2024-01-06T10:23:29;12.15;;;6.22;;
72284;SDS011;60220;53.552;10.092;2024-01-06T10:25:59;11.75;;;5.25;;
72284;SDS011;60220;53.552;10.092;2024-01-06T10:28:26;10.68;;;5.25;;
72284;SDS011;60220;53.552;10.092;2024-01-06T10:30:53;15.43;;;7.07;;
72284;SDS011;60220;53.552;10.092;2024-01-06T10:33:21;17.55;;;7.75;;
72284;SDS011;60220;53.552;10.092;2024-01-06T10:35:48;10.43;;;5.55;;
72284;SDS011;60220;53.552;10.092;2024-01-06T10:38:15;9.32;;;4.93;;
72284;SDS011;60220;53.552;10.092;2024-01-06T10:40:55;9.13;;;4.75;;
72284;SDS011;60220;53.552;10.092;2024-01-06T10:43:25;14.63;;;5.85;;
72284;SDS011;60220;53.552;10.092;2024-01-06T10:45:54;11.43;;;5.53;;
72284;SDS011;60220;53.552;10.092;2024-01-06T10:48:23;14.85;;;5.53;;
72284;SDS011;60220;53.552;10.092;2024-01-06T10:50:53;8.95;;;4.65;;
72284;SDS011;60220;53.552;10.092;2024-01-06T10:53:21;8.65;;;4.80;;
72284;SDS011;60220;53.552;10.092;2024-01-06T10:55:49;12.55;;;5.68;;
72284;SDS011;60220;53.552;10.092;2024-01-06T10:58:16;7.63;;;4.03;;
72284;SDS011;60220;53.552;10.092;2024-01-06T11:00:44;7.30;;;3.83;;
72284;SDS011;60220;53.552;10.092;2024-01-06T11:03:14;12.65;;;5.20;;
72284;SDS011;60220;53.552;10.092;2024-01-06T11:05:41;13.98;;;5.22;;
72284;SDS011;60220;53.552;10.092;2024-01-06T11:08:08;6.28;;;3.30;;
72284;SDS011;60220;53.552;10.092;2024-01-06T11:10:36;9.18;;;4.53;;
72284;SDS011;60220;53.552;10.092;2024-01-06T11:13:08;17.88;;;7.68;;
72284;SDS011;60220;53.552;10.092;2024-01-06T11:15:39;6.95;;;3.95;;
72284;SDS011;60220;53.552;10.092;2024-01-06T11:18:08;5.88;;;3.25;;
72284;SDS011;60220;53.552;10.092;2024-01-06T11:20:34;14.10;;;4.80;;
72284;SDS011;60220;53.552;10.092;2024-01-06T11:23:17;7.45;;;3.70;;
72284;SDS011;60220;53.552;10.092;2024-01-06T11:25:45;10.18;;;4.63;;
72284;SDS011;60220;53.552;10.092;2024-01-06T11:28:12;10.82;;;5.20;;
72284;SDS011;60220;53.552;10.092;2024-01-06T11:30:39;13.18;;;4.15;;
72284;SDS011;60220;53.552;10.092;2024-01-06T11:33:09;8.52;;;4.57;;
72284;SDS011;60220;53.552;10.092;2024-01-06T11:35:36;8.98;;;3.97;;
72284;SDS011;60220;53.552;10.092;2024-01-06T11:38:06;13.85;;;4.15;;
72284;SDS011;60220;53.552;10.092;2024-01-06T11:40:33;12.30;;;4.55;;
72284;SDS011;60220;53.552;10.092;2024-01-06T11:43:02;7.78;;;3.97;;
72284;SDS011;60220;53.552;10.092;2024-01-06T11:45:30;8.55;;;3.42;;
72284;SDS011;60220;53.552;10.092;2024-01-06T11:47:58;11.10;;;5.18;;
72284;SDS011;60220;53.552;10.092;2024-01-06T11:50:28;11.55;;;4.13;;
72284;SDS011;60220;53.552;10.092;2024-01-06T11:52:56;7.22;;;3.80;;
72284;SDS011;60220;53.552;10.092;2024-01-06T11:55:24;8.55;;;3.92;;
72284;SDS011;60220;53.552;10.092;2024-01-06T11:57:53;9.18;;;4.40;;
72284;SDS011;60220;53.552;10.092;2024-01-06T12:00:19;7.70;;;3.72;;
72284;SDS011;60220;53.552;10.092;2024-01-06T12:02:49;5.60;;;3.17;;
72284;SDS011;60220;53.552;10.092;2024-01-06T12:05:17;5.65;;;3.40;;
72284;SDS011;60220;53.552;10.092;2024-01-06T12:07:54;5.05;;;2.95;;
72284;SDS011;60220;53.552;10.092;2024-01-06T12:10:22;6.18;;;3.47;;
72284;SDS011;60220;53.552;10.092;2024-01-06T12:12:56;4.88;;;2.72;;
72284;SDS011;60220;53.552;10.092;2024-01-06T12:15:24;7.30;;;4.05;;
72284;SDS011;60220;53.552;10.092;2024-01-06T12:17:51;10.98;;;3.63;;
72284;SDS011;60220;53.552;10.092;2024-01-06T12:20:18;9.05;;;3.60;;
72284;SDS011;60220;53.552;10.092;2024-01-06T12:22:45;7.20;;;3.90;;
72284;SDS011;60220;53.552;10.092;2024-01-06T12:25:14;6.90;;;3.65;;
72284;SDS011;60220;53.552;10.092;2024-01-06T12:27:41;13.27;;;3.88;;
72284;SDS011;60220;53.552;10.092;2024-01-06T12:30:12;4.88;;;2.78;;
72284;SDS011;60220;53.552;10.092;2024-01-06T12:32:44;5.80;;;3.13;;
72284;SDS011;60220;53.552;10.092;2024-01-06T12:35:14;6.88;;;3.08;;
72284;SDS011;60220;53.552;10.092;2024-01-06T12:37:41;6.30;;;2.83;;
72284;SDS011;60220;53.552;10.092;2024-01-06T12:40:10;5.72;;;2.95;;
72284;SDS011;60220;53.552;10.092;2024-01-06T12:42:40;7.00;;;2.97;;
72284;SDS011;60220;53.552;10.092;2024-01-06T12:45:07;5.38;;;2.55;;
72284;SDS011;60220;53.552;10.092;2024-01-06T12:47:37;6.88;;;3.22;;
72284;SDS011;60220;53.552;10.092;2024-01-06T12:50:07;9.50;;;4.15;;
72284;SDS011;60220;53.552;10.092;2024-01-06T12:52:34;7.65;;;3.50;;
72284;SDS011;60220;53.552;10.092;2024-01-06T12:55:03;10.70;;;2.95;;
72284;SDS011;60220;53.552;10.092;2024-01-06T12:57:31;7.72;;;3.25;;
72284;SDS011;60220;53.552;10.092;2024-01-06T13:00:01;6.45;;;3.35;;
72284;SDS011;60220;53.552;10.092;2024-01-06T13:02:29;6.03;;;3.35;;
72284;SDS011;60220;53.552;10.092;2024-01-06T13:04:58;7.50;;;3.20;;
72284;SDS011;60220;53.552;10.092;2024-01-06T13:07:24;7.80;;;3.83;;
72284;SDS011;60220;53.552;10.092;2024-01-06T13:09:51;9.68;;;2.70;;
72284;SDS011;60220;53.552;10.092;2024-01-06T13:12:18;5.13;;;3.00;;
72284;SDS011;60220;53.552;10.092;2024-01-06T13:14:45;5.93;;;2.70;;
72284;SDS011;60220;53.552;10.092;2024-01-06T13:17:14;8.05;;;2.78;;
72284;SDS011;60220;53.552;10.092;2024-01-06T13:19:40;4.47;;;2.80;;
72284;SDS011;60220;53.552;10.092;2024-01-06T13:22:07;7.55;;;2.40;;
72284;SDS011;60220;53.552;10.092;2024-01-06T13:24:34;2.70;;;1.90;;
72284;SDS011;60220;53.552;10.092;2024-01-06T13:27:01;5.88;;;2.58;;
72284;SDS011;60220;53.552;10.092;2024-01-06T13:29:28;4.50;;;2.47;;
72284;SDS011;60220;53.552;10.092;2024-01-06T13:31:57;6.00;;;3.00;;
72284;SDS011;60220;53.552;10.092;2024-01-06T13:34:25;3.45;;;2.30;;
72284;SDS011;60220;53.552;10.092;2024-01-06T13:36:52;4.57;;;2.28;;
72284;SDS011;60220;53.552;10.092;2024-01-06T13:39:19;3.92;;;2.20;;
72284;SDS011;60220;53.552;10.092;2024-01-06T13:41:48;6.20;;;2.55;;
72284;SDS011;60220;53.552;10.092;2024-01-06T13:44:15;4.65;;;2.70;;
72284;SDS011;60220;53.552;10.092;2024-01-06T13:46:44;9.80;;;2.80;;
72284;SDS011;60220;53.552;10.092;2024-01-06T13:49:12;8.82;;;2.97;;
72284;SDS011;60220;53.552;10.092;2024-01-06T13:51:41;6.20;;;2.70;;
72284;SDS011;60220;53.552;10.092;2024-01-06T13:54:10;6.57;;;3.00;;
72284;SDS011;60220;53.552;10.092;2024-01-06T13:56:37;4.85;;;3.53;;
72284;SDS011;60220;53.552;10.092;2024-01-06T13:59:03;5.20;;;2.58;;
72284;SDS011;60220;53.552;10.092;2024-01-06T14:01:30;7.43;;;2.05;;
72284;SDS011;60220;53.552;10.092;2024-01-06T14:03:57;5.03;;;2.45;;
72284;SDS011;60220;53.552;10.092;2024-01-06T14:06:24;5.28;;;2.65;;
72284;SDS011;60220;53.552;10.092;2024-01-06T14:08:56;4.40;;;1.90;;
72284;SDS011;60220;53.552;10.092;2024-01-06T14:11:22;4.18;;;2.20;;
72284;SDS011;60220;53.552;10.092;2024-01-06T14:13:53;4.32;;;2.50;;
72284;SDS011;60220;53.552;10.092;2024-01-06T14:16:20;4.97;;;2.72;;
72284;SDS011;60220;53.552;10.092;2024-01-06T14:18:46;6.63;;;2.97;;
72284;SDS011;60220;53.552;10.092;2024-01-06T14:21:13;6.93;;;3.10;;
72284;SDS011;60220;53.552;10.092;2024-01-06T14:23:40;19.67;;;8.30;;
72284;SDS011;60220;53.552;10.092;2024-01-06T14:26:08;4.57;;;2.63;;
72284;SDS011;60220;53.552;10.092;2024-01-06T14:28:35;6.95;;;2.78;;
72284;SDS011;60220;53.552;10.092;2024-01-06T14:31:02;8.02;;;3.10;;
72284;SDS011;60220;53.552;10.092;2024-01-06T14:33:31;4.38;;;2.33;;